createdAt,value
2018-04-22T00:01:19.561Z,13.73
2018-04-22T00:03:50.482Z,12.87
2018-04-22T00:06:20.677Z,12.93
2018-04-22T00:08:50.929Z,12.70
2018-04-22T00:11:21.154Z,14.77
2018-04-22T00:13:51.416Z,13.27
2018-04-22T00:16:21.592Z,14.97
2018-04-22T00:18:51.830Z,12.60
2018-04-22T00:21:21.627Z,13.43
2018-04-22T00:23:51.463Z,13.73
2018-04-22T00:26:22.178Z,14.77
2018-04-22T00:28:52.298Z,13.77
2018-04-22T00:31:24.108Z,15.43
2018-04-22T00:33:53.971Z,12.97
2018-04-22T00:36:24.503Z,13.93
2018-04-22T00:38:54.624Z,13.07
2018-04-22T00:41:24.793Z,14.43
2018-04-22T00:43:55.398Z,13.17
2018-04-22T00:46:25.970Z,13.80
2018-04-22T00:48:56.280Z,12.83
2018-04-22T00:51:26.795Z,11.93
2018-04-22T00:54:22.186Z,13.13
2018-04-22T00:56:53.625Z,14.37
2018-04-22T00:59:24.359Z,14.67
2018-04-22T01:01:54.579Z,14.63
2018-04-22T01:04:26.765Z,14.37
2018-04-22T01:06:57.717Z,15.17
2018-04-22T01:09:27.963Z,14.87
2018-04-22T01:11:58.294Z,15.20
2018-04-22T01:14:29.061Z,15.20
2018-04-22T01:17:00.590Z,15.37
2018-04-22T01:19:30.953Z,14.70
2018-04-22T01:22:03.733Z,14.57
2018-04-22T01:24:34.579Z,15.80
2018-04-22T01:27:04.751Z,14.40
2018-04-22T01:29:35.020Z,14.47
2018-04-22T01:32:06.023Z,14.17
2018-04-22T01:34:37.203Z,15.63
2018-04-22T01:37:07.936Z,14.60
2018-04-22T01:39:38.188Z,14.73
2018-04-22T01:42:08.380Z,17.23
2018-04-22T01:44:40.711Z,14.77
2018-04-22T01:47:12.624Z,14.93
2018-04-22T01:49:43.272Z,14.87
2018-04-22T01:52:14.706Z,15.60
2018-04-22T01:54:46.112Z,15.27
2018-04-22T01:57:16.431Z,15.13
2018-04-22T01:59:46.973Z,13.93
2018-04-22T02:02:17.159Z,14.43
2018-04-22T02:04:48.762Z,14.60
2018-04-22T02:07:18.960Z,14.90
2018-04-22T02:09:50.102Z,14.53
2018-04-22T02:12:20.876Z,14.00
2018-04-22T02:14:51.998Z,14.07
2018-04-22T02:17:23.190Z,14.87
2018-04-22T02:19:53.798Z,14.60
2018-04-22T02:22:24.522Z,14.20
2018-04-22T02:24:55.755Z,14.33
2018-04-22T02:27:26.599Z,14.10
2018-04-22T02:29:57.256Z,14.13
2018-04-22T02:32:27.548Z,14.73
2018-04-22T02:34:58.014Z,14.90
2018-04-22T02:37:28.226Z,14.20
2018-04-22T02:39:58.455Z,14.93
2018-04-22T02:42:28.640Z,14.83
2018-04-22T02:44:58.799Z,15.87
2018-04-22T02:47:29.322Z,15.57
2018-04-22T02:49:59.556Z,16.67
2018-04-22T02:52:29.668Z,14.73
2018-04-22T02:54:59.967Z,16.40
2018-04-22T02:57:30.165Z,15.23
2018-04-22T03:00:00.284Z,16.93
2018-04-22T03:02:30.553Z,15.50
2018-04-22T03:05:01.502Z,16.10
2018-04-22T03:07:31.837Z,17.20
2018-04-22T03:10:01.745Z,15.83
2018-04-22T03:12:31.715Z,17.20
2018-04-22T03:15:01.498Z,17.27
2018-04-22T03:17:31.694Z,17.77
2018-04-22T03:20:01.841Z,16.50
2018-04-22T03:22:31.926Z,16.77
2018-04-22T03:25:03.007Z,16.37
2018-04-22T03:27:33.779Z,17.40
2018-04-22T03:30:04.020Z,19.53
2018-04-22T03:32:34.271Z,16.07
2018-04-22T03:35:04.424Z,16.73
2018-04-22T03:37:35.218Z,17.57
2018-04-22T03:40:06.107Z,16.13
2018-04-22T03:42:36.425Z,15.97
2018-04-22T03:45:07.162Z,16.80
2018-04-22T03:47:37.663Z,16.37
2018-04-22T03:50:07.809Z,17.37
2018-04-22T03:52:38.897Z,18.70
2018-04-22T03:55:09.893Z,19.73
2018-04-22T03:57:40.257Z,16.40
2018-04-22T04:00:11.167Z,18.57
2018-04-22T04:02:42.245Z,16.87
2018-04-22T04:05:12.419Z,17.77
2018-04-22T04:07:42.960Z,17.30
2018-04-22T04:10:14.144Z,20.10
2018-04-22T04:12:46.887Z,20.67
2018-04-22T04:15:17.966Z,17.47
2018-04-22T04:17:49.117Z,19.47
2018-04-22T04:22:43.307Z,19.27
2018-04-22T04:27:31.262Z,18.53
2018-04-22T04:30:02.562Z,18.00
2018-04-22T04:32:33.498Z,18.43
2018-04-22T04:35:04.449Z,17.83
2018-04-22T04:37:34.916Z,18.37
2018-04-22T04:40:05.092Z,18.53
2018-04-22T04:42:34.953Z,18.50
2018-04-22T04:45:05.125Z,18.13
2018-04-22T04:47:35.407Z,20.00
2018-04-22T04:50:05.520Z,18.63
2018-04-22T04:52:35.700Z,18.17
2018-04-22T04:55:06.412Z,17.13
2018-04-22T04:57:36.555Z,18.33
2018-04-22T05:00:08.255Z,17.70
2018-04-22T05:02:38.062Z,18.43
2018-04-22T05:05:09.980Z,19.20
2018-04-22T05:07:41.041Z,17.33
2018-04-22T05:10:14.368Z,17.93
2018-04-22T05:12:45.023Z,17.70
2018-04-22T05:15:15.198Z,17.73
2018-04-22T05:17:45.585Z,17.23
2018-04-22T05:20:17.729Z,18.33
2018-04-22T05:22:48.406Z,17.17
2018-04-22T05:25:18.671Z,16.93
2018-04-22T05:27:48.884Z,18.60
2018-04-22T05:30:19.208Z,16.50
2018-04-22T05:32:49.641Z,13.70
2018-04-22T05:35:19.860Z,14.53
2018-04-22T05:37:50.314Z,14.03
2018-04-22T05:40:20.214Z,14.00
2018-04-22T05:42:50.387Z,13.77
2018-04-22T05:45:20.753Z,13.70
2018-04-22T05:47:50.662Z,11.63
2018-04-22T05:50:28.000Z,11.80
2018-04-22T05:52:58.182Z,11.83
2018-04-22T05:55:28.973Z,11.47
2018-04-22T05:57:58.340Z,11.43
2018-04-22T06:00:27.816Z,10.97
2018-04-22T06:02:57.236Z,10.97
2018-04-22T06:05:26.739Z,11.47
2018-04-22T06:07:56.135Z,11.37
2018-04-22T06:10:25.547Z,11.07
2018-04-22T06:12:55.105Z,11.07
2018-04-22T06:15:24.759Z,11.33
2018-04-22T06:17:54.268Z,10.87
2018-04-22T06:20:23.664Z,10.70
2018-04-22T06:22:53.176Z,11.97
2018-04-22T06:25:22.690Z,12.73
2018-04-22T06:27:52.136Z,12.80
2018-04-22T06:30:21.509Z,12.53
2018-04-22T06:32:50.893Z,11.77
2018-04-22T06:35:21.063Z,12.57
2018-04-22T06:37:50.515Z,11.87
2018-04-22T06:40:20.099Z,11.67
2018-04-22T06:42:49.733Z,11.77
2018-04-22T06:45:19.241Z,12.40
2018-04-22T06:47:49.449Z,11.30
2018-04-22T06:50:18.963Z,11.40
2018-04-22T06:52:50.652Z,11.97
2018-04-22T06:55:20.443Z,11.47
2018-04-22T06:57:52.703Z,12.10
2018-04-22T07:00:22.926Z,12.53
2018-04-22T07:02:54.033Z,12.70
2018-04-22T07:05:25.992Z,13.70
2018-04-22T07:07:57.077Z,12.57
2018-04-22T07:10:28.068Z,12.47
2018-04-22T07:12:58.403Z,13.17
2018-04-22T07:15:29.280Z,12.67
2018-04-22T07:18:00.399Z,12.10
2018-04-22T07:20:30.640Z,13.07
2018-04-22T07:23:00.667Z,16.17
2018-04-22T07:25:30.231Z,12.67
2018-04-22T07:27:59.680Z,12.70
2018-04-22T07:30:31.024Z,12.47
2018-04-22T07:33:01.619Z,10.83
2018-04-22T07:35:31.165Z,13.53
2018-04-22T07:38:00.976Z,13.33
2018-04-22T07:40:30.440Z,15.20
2018-04-22T07:43:01.618Z,14.27
2018-04-22T07:45:31.080Z,13.67
2018-04-22T07:48:05.654Z,15.17
2018-04-22T07:50:35.864Z,15.17
2018-04-22T07:53:05.350Z,13.77
2018-04-22T07:55:35.610Z,14.13
2018-04-22T07:58:05.114Z,14.37
2018-04-22T08:00:34.677Z,14.57
2018-04-22T08:03:05.009Z,15.13
2018-04-22T08:05:34.922Z,14.40
2018-04-22T08:08:05.190Z,18.53
2018-04-22T08:10:35.096Z,17.17
2018-04-22T08:13:05.016Z,18.43
2018-04-22T08:15:34.839Z,16.90
2018-04-22T08:18:05.148Z,18.47
2018-04-22T08:20:38.251Z,21.93
2018-04-22T08:23:08.568Z,18.23
2018-04-22T08:25:39.503Z,18.40
2018-04-22T08:28:10.064Z,17.97
2018-04-22T08:30:40.323Z,20.23
2018-04-22T08:33:10.583Z,19.07
2018-04-22T08:35:41.729Z,19.00
2018-04-22T08:38:12.111Z,17.97
2018-04-22T08:40:42.376Z,18.57
2018-04-22T08:43:12.184Z,19.13
2018-04-22T08:45:42.939Z,20.20
2018-04-22T08:48:13.239Z,20.30
2018-04-22T08:50:43.312Z,18.80
2018-04-22T08:53:15.013Z,18.27
2018-04-22T08:55:45.718Z,18.03
2018-04-22T08:58:16.807Z,19.60
2018-04-22T09:00:47.132Z,19.23
2018-04-22T09:03:17.361Z,17.70
2018-04-22T09:05:48.246Z,17.83
2018-04-22T09:08:18.371Z,20.23
2018-04-22T09:10:48.798Z,19.47
2018-04-22T09:13:20.198Z,16.83
2018-04-22T09:15:50.200Z,17.63
2018-04-22T09:18:20.865Z,19.00
2018-04-22T09:20:51.350Z,18.27
2018-04-22T09:23:21.588Z,17.37
2018-04-22T09:25:51.457Z,17.87
2018-04-22T09:28:21.376Z,16.17
2018-04-22T09:30:52.560Z,19.27
2018-04-22T09:33:33.760Z,18.77
2018-04-22T09:39:02.571Z,18.60
2018-04-22T09:41:33.549Z,15.30
2018-04-22T09:44:04.079Z,17.30
2018-04-22T09:46:33.528Z,15.13
2018-04-22T09:49:03.033Z,17.90
2018-04-22T09:51:39.707Z,20.40
2018-04-22T09:54:19.169Z,18.63
2018-04-22T09:56:49.013Z,16.67
2018-04-22T09:59:18.972Z,19.37
2018-04-22T10:04:37.401Z,19.97
2018-04-22T10:07:11.003Z,19.57
2018-04-22T10:09:40.869Z,17.93
2018-04-22T10:12:11.241Z,21.13
2018-04-22T10:14:41.604Z,19.33
2018-04-22T10:17:11.896Z,19.17
2018-04-22T10:19:42.290Z,17.83
2018-04-22T10:22:12.692Z,19.33
2018-04-22T10:24:42.899Z,19.80
2018-04-22T10:27:14.541Z,19.93
2018-04-22T10:29:47.755Z,20.30
2018-04-22T10:32:18.060Z,21.07
2018-04-22T10:34:48.545Z,20.07
2018-04-22T10:37:18.423Z,20.20
2018-04-22T10:39:53.008Z,17.30
2018-04-22T10:42:23.162Z,21.27
2018-04-22T10:44:53.445Z,17.67
2018-04-22T10:47:23.728Z,17.73
2018-04-22T10:49:53.949Z,18.07
2018-04-22T10:52:24.097Z,18.63
2018-04-22T10:54:56.044Z,17.13
2018-04-22T10:57:28.188Z,18.63
2018-04-22T11:00:05.073Z,17.10
2018-04-22T11:02:35.290Z,15.80
2018-04-22T11:05:05.476Z,12.50
2018-04-22T11:07:41.135Z,15.20
2018-04-22T11:10:11.413Z,14.30
2018-04-22T11:12:48.181Z,15.97
2018-04-22T11:15:31.133Z,17.50
2018-04-22T11:18:00.488Z,13.17
2018-04-22T11:20:30.709Z,13.23
2018-04-22T11:23:00.838Z,14.63
2018-04-22T11:25:31.297Z,12.03
2018-04-22T11:28:01.481Z,12.93
2018-04-22T11:30:32.481Z,13.50
2018-04-22T11:33:06.532Z,14.67
2018-04-22T11:35:37.099Z,13.27
2018-04-22T11:38:14.248Z,13.33
2018-04-22T11:40:44.419Z,17.50
2018-04-22T11:43:32.447Z,12.17
2018-04-22T11:46:03.064Z,12.97
2018-04-22T11:48:33.361Z,11.47
2018-04-22T11:51:07.229Z,12.10
2018-04-22T11:53:38.627Z,16.17
2018-04-22T11:56:08.915Z,12.83
2018-04-22T11:58:39.784Z,10.70
2018-04-22T12:01:26.593Z,13.93
2018-04-22T12:03:56.920Z,10.63
2018-04-22T12:06:27.501Z,9.80
2018-04-22T12:08:58.136Z,9.40
2018-04-22T12:11:28.477Z,10.30
2018-04-22T12:13:58.380Z,12.07
2018-04-22T12:16:29.879Z,9.43
2018-04-22T12:18:59.721Z,12.20
2018-04-22T12:21:31.028Z,13.23
2018-04-22T12:24:06.831Z,9.80
2018-04-22T12:26:39.571Z,9.77
2018-04-22T12:29:14.905Z,9.90
2018-04-22T12:31:45.447Z,11.37
2018-04-22T12:34:16.340Z,9.00
2018-04-22T12:36:53.894Z,11.07
2018-04-22T12:39:30.373Z,8.60
2018-04-22T12:42:00.674Z,24.30
2018-04-22T12:44:32.134Z,9.97
2018-04-22T12:47:02.872Z,14.77
2018-04-22T12:49:33.446Z,11.40
2018-04-22T12:52:03.771Z,9.87
2018-04-22T12:54:34.317Z,31.67
2018-04-22T12:57:06.229Z,8.50
2018-04-22T12:59:37.241Z,9.30
2018-04-22T13:02:08.408Z,7.17
2018-04-22T13:04:39.698Z,15.27
2018-04-22T13:07:26.139Z,7.70
2018-04-22T13:10:18.855Z,7.77
2018-04-22T13:12:53.715Z,8.93
2018-04-22T13:15:33.641Z,10.23
2018-04-22T13:18:03.962Z,7.40
2018-04-22T13:20:37.487Z,6.83
2018-04-22T13:23:08.329Z,6.47
2018-04-22T13:28:34.361Z,5.33
2018-04-22T13:31:09.738Z,7.50
2018-04-22T13:33:40.237Z,9.63
2018-04-22T13:36:10.479Z,8.23
2018-04-22T13:38:51.547Z,10.53
2018-04-22T13:41:24.124Z,6.53
2018-04-22T13:43:54.762Z,5.47
2018-04-22T13:46:24.954Z,6.60
2018-04-22T13:48:55.381Z,5.67
2018-04-22T13:51:25.220Z,6.03
2018-04-22T13:53:56.526Z,6.10
2018-04-22T13:56:42.663Z,7.27
2018-04-22T13:59:14.337Z,4.93
2018-04-22T14:01:44.539Z,12.17
2018-04-22T14:04:16.306Z,4.83
2018-04-22T14:06:46.590Z,7.70
2018-04-22T14:09:36.428Z,9.13
2018-04-22T14:12:06.751Z,6.90
2018-04-22T14:14:38.861Z,4.93
2018-04-22T14:17:09.012Z,3.93
2018-04-22T14:19:40.179Z,7.37
2018-04-22T14:22:12.143Z,4.00
2018-04-22T14:24:42.475Z,6.20
2018-04-22T14:27:12.893Z,6.27
2018-04-22T14:29:43.155Z,6.00
2018-04-22T14:32:13.417Z,6.63
2018-04-22T14:34:46.381Z,4.93
2018-04-22T14:37:16.643Z,6.37
2018-04-22T14:39:54.906Z,6.10
2018-04-22T14:42:25.950Z,6.70
2018-04-22T14:47:08.573Z,9.07
2018-04-22T14:49:38.688Z,6.60
2018-04-22T14:52:10.599Z,5.67
2018-04-22T14:54:40.775Z,6.10
2018-04-22T14:57:10.228Z,5.03
2018-04-22T14:59:44.452Z,5.33
2018-04-22T15:02:16.262Z,7.47
2018-04-22T15:04:47.146Z,4.60
2018-04-22T15:07:18.629Z,4.67
2018-04-22T15:09:56.513Z,4.70
2018-04-22T15:12:27.542Z,4.87
2018-04-22T15:15:00.013Z,6.63
2018-04-22T15:17:30.574Z,4.93
2018-04-22T15:20:00.872Z,5.53
2018-04-22T15:22:31.198Z,3.83
2018-04-22T15:25:08.748Z,5.83
2018-04-22T15:27:40.153Z,5.57
2018-04-22T15:30:10.458Z,5.30
2018-04-22T15:32:41.841Z,6.93
2018-04-22T15:35:12.645Z,4.83
2018-04-22T15:37:43.092Z,3.67
2018-04-22T15:40:13.351Z,5.50
2018-04-22T15:42:43.690Z,5.33
2018-04-22T15:45:14.178Z,6.97
2018-04-22T15:48:02.613Z,7.53
2018-04-22T15:50:32.820Z,8.73
2018-04-22T15:53:02.949Z,7.00
2018-04-22T15:55:33.073Z,5.93
2018-04-22T15:58:03.398Z,3.30
2018-04-22T16:00:33.564Z,6.03
2018-04-22T16:03:05.277Z,3.77
2018-04-22T16:05:35.518Z,4.27
2018-04-22T16:08:10.975Z,8.67
2018-04-22T16:10:41.215Z,4.17
2018-04-22T16:13:11.791Z,6.93
2018-04-22T16:15:42.107Z,5.23
2018-04-22T16:18:12.340Z,3.57
2018-04-22T16:20:42.668Z,3.83
2018-04-22T16:23:12.916Z,7.10
2018-04-22T16:25:43.108Z,6.13
2018-04-22T16:28:17.051Z,5.03
2018-04-22T16:30:47.544Z,8.73
2018-04-22T16:33:17.952Z,6.23
2018-04-22T16:35:50.823Z,3.70
2018-04-22T16:38:27.208Z,5.40
2018-04-22T16:40:58.021Z,7.47
2018-04-22T16:43:30.223Z,5.33
2018-04-22T16:46:00.479Z,5.07
2018-04-22T16:48:30.634Z,7.93
2018-04-22T16:51:01.127Z,6.63
2018-04-22T16:53:31.485Z,7.20
2018-04-22T16:56:01.912Z,4.13
2018-04-22T16:58:32.244Z,4.87
2018-04-22T17:01:02.641Z,5.23
2018-04-22T17:03:33.421Z,3.50
2018-04-22T17:06:03.695Z,5.43
2018-04-22T17:08:33.921Z,5.10
2018-04-22T17:11:04.202Z,4.43
2018-04-22T17:13:34.445Z,8.40
2018-04-22T17:16:04.716Z,6.20
2018-04-22T17:18:34.849Z,5.07
2018-04-22T17:21:05.555Z,5.83
2018-04-22T17:23:39.119Z,5.60
2018-04-22T17:26:09.540Z,3.97
2018-04-22T17:28:39.771Z,7.97
2018-04-22T17:31:09.981Z,4.93
2018-04-22T17:33:40.209Z,9.17
2018-04-22T17:36:10.437Z,5.83
2018-04-22T17:38:41.360Z,7.70
2018-04-22T17:41:11.497Z,8.17
2018-04-22T17:43:42.846Z,5.57
2018-04-22T17:46:13.118Z,6.93
2018-04-22T17:48:43.236Z,7.67
2018-04-22T17:51:13.513Z,4.30
2018-04-22T17:53:43.721Z,12.07
2018-04-22T17:56:16.110Z,3.93
2018-04-22T17:58:49.718Z,7.10
2018-04-22T18:01:22.599Z,5.80
2018-04-22T18:03:53.022Z,7.57
2018-04-22T18:06:23.352Z,7.90
2018-04-22T18:08:53.677Z,7.97
2018-04-22T18:11:24.203Z,5.30
2018-04-22T18:13:54.485Z,4.97
2018-04-22T18:16:24.761Z,6.07
2018-04-22T18:18:56.319Z,7.57
2018-04-22T18:21:26.516Z,6.00
2018-04-22T18:23:57.769Z,7.80
2018-04-22T18:26:28.116Z,8.80
2018-04-22T18:28:58.883Z,7.07
2018-04-22T18:31:30.807Z,7.17
2018-04-22T18:34:01.548Z,5.73
2018-04-22T18:36:34.244Z,6.47
2018-04-22T18:39:06.874Z,7.73
2018-04-22T18:41:37.304Z,6.37
2018-04-22T18:44:08.347Z,8.23
2018-04-22T18:46:39.176Z,5.77
2018-04-22T18:49:09.757Z,6.20
2018-04-22T18:51:41.310Z,6.93
2018-04-22T18:54:12.202Z,8.80
2018-04-22T18:56:42.460Z,4.77
2018-04-22T18:59:13.160Z,9.23
2018-04-22T19:01:43.959Z,9.33
2018-04-22T19:04:14.249Z,6.50
2018-04-22T19:06:44.366Z,8.77
2018-04-22T19:09:14.746Z,14.07
2018-04-22T19:11:46.278Z,6.67
2018-04-22T19:14:17.232Z,9.20
2018-04-22T19:16:47.092Z,6.47
2018-04-22T19:19:19.061Z,8.20
2018-04-22T19:21:49.287Z,7.80
2018-04-22T19:24:19.929Z,10.40
2018-04-22T19:29:53.639Z,7.00
2018-04-22T19:32:27.129Z,6.43
2018-04-22T19:35:09.271Z,7.13
2018-04-22T19:37:40.577Z,7.20
2018-04-22T19:40:15.920Z,7.37
2018-04-22T19:42:48.194Z,7.33
2018-04-22T19:45:18.362Z,8.77
2018-04-22T19:47:49.803Z,11.10
2018-04-22T19:50:21.163Z,8.17
2018-04-22T19:52:51.436Z,7.77
2018-04-22T19:55:24.924Z,6.60
2018-04-22T20:00:33.518Z,5.63
2018-04-22T20:03:06.379Z,7.63
2018-04-22T20:05:58.156Z,6.53
2018-04-22T20:11:42.575Z,6.37
2018-04-22T20:14:29.680Z,7.87
2018-04-22T20:17:31.416Z,8.33
2018-04-22T20:40:26.997Z,5.57
2018-04-22T21:38:03.322Z,8.87
2018-04-22T21:40:33.660Z,13.10
2018-04-22T21:43:03.073Z,7.67
2018-04-22T21:45:33.436Z,10.50
2018-04-22T21:48:03.929Z,11.30
2018-04-22T21:50:34.281Z,13.87
2018-04-22T21:53:04.836Z,11.67
2018-04-22T21:55:35.105Z,12.27
2018-04-22T21:58:05.337Z,6.00
2018-04-22T22:00:35.461Z,10.70
2018-04-22T22:03:06.213Z,10.93
2018-04-22T22:05:36.493Z,9.37
2018-04-22T22:08:06.644Z,8.00
2018-04-22T22:10:36.815Z,8.40
2018-04-22T22:13:07.400Z,8.53
2018-04-22T22:15:38.129Z,8.77
2018-04-22T22:18:09.862Z,8.33
2018-04-22T22:20:40.841Z,10.13
2018-04-22T22:23:12.769Z,7.50
2018-04-22T22:25:43.670Z,9.60
2018-04-22T22:28:13.946Z,8.30
2018-04-22T22:30:44.158Z,10.10
2018-04-22T22:33:14.536Z,10.80
2018-04-22T22:35:45.945Z,11.73
2018-04-22T22:38:16.811Z,8.90
2018-04-22T22:40:48.238Z,10.03
2018-04-22T22:43:18.347Z,6.60
2018-04-22T22:45:50.221Z,8.23
2018-04-22T22:48:21.713Z,8.07
2018-04-22T22:50:52.445Z,11.53
2018-04-22T22:53:24.000Z,10.93
2018-04-22T22:55:54.950Z,9.60
2018-04-22T22:58:27.469Z,10.57
2018-04-22T23:00:57.897Z,10.73
2018-04-22T23:03:29.064Z,7.70
2018-04-22T23:06:00.749Z,8.33
2018-04-22T23:08:33.593Z,11.10
2018-04-22T23:11:05.362Z,10.53
2018-04-22T23:13:36.993Z,11.23
2018-04-22T23:16:07.333Z,9.83
2018-04-22T23:18:37.827Z,11.60
2018-04-22T23:21:08.028Z,10.30
2018-04-22T23:23:37.780Z,13.40
2018-04-22T23:26:08.355Z,12.40
2018-04-22T23:28:39.221Z,11.27
2018-04-22T23:31:09.401Z,10.90
2018-04-22T23:33:39.683Z,9.97
2018-04-22T23:36:09.971Z,8.43
2018-04-22T23:38:40.922Z,8.63
2018-04-22T23:41:11.084Z,10.10
2018-04-22T23:43:40.893Z,10.93
2018-04-22T23:46:11.027Z,10.03
2018-04-22T23:48:41.125Z,8.93
2018-04-22T23:51:11.260Z,11.37
2018-04-22T23:53:41.404Z,11.63
2018-04-22T23:56:12.217Z,13.40
2018-04-22T23:58:42.349Z,11.43
